Time;durP1;ratioP1;P1;durP2;ratioP2;P2;SDS_P1;SDS_P2;PMS_P1;PMS_P2;Temp;Humidity;BMP_temperature;BMP_pressure;BME280_temperature;BME280_humidity;BME280_pressure;Samples;Min_cycle;Max_cycle;Signal;HPM_P1;HPM_P2
2022/07/20 00:00:35;;;;;;;4.97;3.00;;;26.50;72.90;;;;;;5033694;28;20310;-62
2022/07/20 00:03:08;;;;;;;7.40;3.50;;;26.50;73.00;;;;;;5031339;28;20081;-62
2022/07/20 00:05:34;;;;;;;6.07;3.03;;;26.40;73.10;;;;;;5034034;28;20108;-62
2022/07/20 00:08:00;;;;;;;5.18;3.42;;;26.40;73.20;;;;;;5027839;28;20443;-62
2022/07/20 00:13:11;;;;;;;9.02;3.38;;;26.30;73.40;;;;;;5028622;28;20041;-62
2022/07/20 00:15:37;;;;;;;8.23;3.45;;;26.20;73.40;;;;;;5030774;28;20052;-63
2022/07/20 00:18:03;;;;;;;5.60;3.55;;;26.20;73.80;;;;;;5031482;28;20522;-61
2022/07/20 00:20:29;;;;;;;6.57;3.47;;;26.10;73.80;;;;;;5031580;28;20112;-62
2022/07/20 00:22:56;;;;;;;4.93;3.28;;;26.10;73.80;;;;;;5033586;28;20037;-62
2022/07/20 00:25:23;;;;;;;4.78;3.28;;;26.00;74.00;;;;;;5020018;28;20049;-62
2022/07/20 00:27:48;;;;;;;9.30;3.70;;;26.00;74.10;;;;;;5033024;28;20052;-62
2022/07/20 00:30:14;;;;;;;6.32;3.40;;;25.90;74.20;;;;;;5028147;28;20041;-62
2022/07/20 00:32:40;;;;;;;4.90;3.30;;;25.90;75.00;;;;;;5033196;28;20030;-62
2022/07/20 00:35:08;;;;;;;4.32;3.10;;;25.80;74.60;;;;;;5032319;28;20033;-61
2022/07/20 00:37:34;;;;;;;7.05;3.60;;;25.80;74.60;;;;;;5032042;28;20044;-62
2022/07/20 00:39:59;;;;;;;7.15;3.55;;;25.70;74.90;;;;;;5031716;28;20033;-62
2022/07/20 00:42:26;;;;;;;9.88;4.05;;;25.60;75.10;;;;;;5030713;28;20678;-62
2022/07/20 00:44:51;;;;;;;5.38;3.58;;;25.50;75.20;;;;;;5032743;28;20359;-62
2022/07/20 00:47:17;;;;;;;6.03;3.63;;;25.50;75.50;;;;;;5030119;28;20129;-62
2022/07/20 00:49:43;;;;;;;8.77;4.13;;;25.40;75.50;;;;;;5027269;28;20037;-62
2022/07/20 00:52:09;;;;;;;6.82;4.13;;;25.40;75.40;;;;;;5032869;28;20037;-62
2022/07/20 00:54:35;;;;;;;5.72;3.28;;;25.40;75.40;;;;;;5030384;28;20067;-62
2022/07/20 00:57:01;;;;;;;6.05;3.20;;;25.40;75.60;;;;;;5030145;28;20033;-61
2022/07/20 00:59:28;;;;;;;6.95;3.72;;;25.40;75.60;;;;;;5032673;28;20048;-62
2022/07/20 01:01:55;;;;;;;5.63;3.17;;;25.30;75.20;;;;;;5030162;28;20112;-62
2022/07/20 01:04:21;;;;;;;7.45;3.53;;;25.30;74.90;;;;;;5032894;28;20040;-61
2022/07/20 01:06:48;;;;;;;5.80;3.40;;;25.30;74.80;;;;;;5029634;28;20041;-62
2022/07/20 01:09:14;;;;;;;5.97;3.30;;;25.30;74.60;;;;;;5028956;28;20379;-62
2022/07/20 01:11:39;;;;;;;6.95;3.30;;;25.30;74.50;;;;;;5032307;28;20044;-62
2022/07/20 01:14:06;;;;;;;5.65;3.65;;;25.30;74.30;;;;;;5016795;28;20052;-62
2022/07/20 01:16:33;;;;;;;6.30;3.60;;;25.30;74.10;;;;;;5015575;28;20103;-62
2022/07/20 01:18:59;;;;;;;8.55;3.70;;;25.20;74.20;;;;;;5014902;28;20042;-62
2022/07/20 01:21:25;;;;;;;4.97;3.40;;;25.20;74.30;;;;;;5013904;28;20099;-62
2022/07/20 01:23:51;;;;;;;5.60;3.40;;;25.20;74.30;;;;;;5013937;28;20037;-62
2022/07/20 01:26:17;;;;;;;5.60;3.58;;;25.20;74.20;;;;;;5014487;28;20042;-62
2022/07/20 01:28:43;;;;;;;6.22;3.60;;;25.10;74.10;;;;;;5022850;28;20029;-62
2022/07/20 01:31:09;;;;;;;5.28;3.42;;;25.10;74.50;;;;;;5013658;28;20034;-62
2022/07/20 01:33:35;;;;;;;6.45;3.15;;;25.10;74.60;;;;;;5032031;28;20075;-63
2022/07/20 01:36:01;;;;;;;7.07;3.72;;;25.10;74.30;;;;;;5032210;28;20029;-63
2022/07/20 01:38:27;;;;;;;7.75;4.28;;;25.00;74.10;;;;;;5008299;28;20121;-63
2022/07/20 01:40:52;;;;;;;6.32;3.10;;;25.00;74.50;;;;;;5010663;28;20033;-63
2022/07/20 01:43:18;;;;;;;7.15;3.35;;;25.00;74.60;;;;;;5031692;28;20057;-62
2022/07/20 01:45:44;;;;;;;4.72;3.20;;;24.90;74.50;;;;;;5029407;28;20144;-63
2022/07/20 01:48:10;;;;;;;6.38;3.80;;;24.90;74.70;;;;;;5031478;28;20144;-63
2022/07/20 01:50:38;;;;;;;5.32;3.65;;;24.90;74.70;;;;;;5026846;28;20072;-62
2022/07/20 01:53:04;;;;;;;4.90;3.38;;;24.80;74.50;;;;;;5029304;28;20053;-62
2022/07/20 01:55:30;;;;;;;6.05;3.35;;;24.70;74.50;;;;;;5030193;28;20083;-62
2022/07/20 01:57:55;;;;;;;5.65;3.38;;;24.80;74.60;;;;;;5030955;28;20084;-62
2022/07/20 02:00:21;;;;;;;5.63;3.40;;;24.70;74.70;;;;;;5031236;28;20473;-62
2022/07/20 02:02:48;;;;;;;7.40;3.85;;;24.60;74.80;;;;;;5026287;28;20041;-62
2022/07/20 02:05:13;;;;;;;5.75;3.33;;;24.60;74.90;;;;;;5031651;28;20041;-62
2022/07/20 02:07:39;;;;;;;7.80;3.70;;;24.60;75.00;;;;;;5028647;28;20045;-62
2022/07/20 02:10:07;;;;;;;6.72;3.40;;;24.60;75.00;;;;;;5028913;28;20465;-62
2022/07/20 02:12:33;;;;;;;5.18;3.70;;;24.60;75.00;;;;;;5031403;28;20025;-62
2022/07/20 02:14:58;;;;;;;6.68;3.70;;;24.50;75.10;;;;;;5028876;28;20025;-62
2022/07/20 02:17:24;;;;;;;5.53;3.35;;;24.50;75.30;;;;;;5029988;28;20461;-62
2022/07/20 02:19:53;;;;;;;5.20;3.58;;;24.40;75.40;;;;;;5030195;28;20045;-63
2022/07/20 02:22:18;;;;;;;9.70;3.65;;;24.40;75.70;;;;;;5031466;28;20156;-63
2022/07/20 02:24:44;;;;;;;6.25;3.70;;;24.30;75.60;;;;;;5027785;28;20072;-62
2022/07/20 02:27:10;;;;;;;7.15;3.72;;;24.30;75.70;;;;;;5008591;28;20128;-62
2022/07/20 02:29:36;;;;;;;6.20;3.60;;;24.20;75.80;;;;;;5010070;28;20033;-62
2022/07/20 02:32:01;;;;;;;8.25;4.25;;;24.20;76.00;;;;;;5029030;28;20040;-62
2022/07/20 02:34:27;;;;;;;5.22;3.78;;;24.20;76.00;;;;;;5031684;28;20037;-62
2022/07/20 02:36:53;;;;;;;7.10;3.70;;;24.20;76.10;;;;;;5029733;28;20037;-62
2022/07/20 02:39:18;;;;;;;10.30;4.03;;;24.10;76.50;;;;;;5013512;28;20651;-62
2022/07/20 02:41:44;;;;;;;6.97;4.00;;;24.00;76.50;;;;;;5030532;28;20116;-61
2022/07/20 02:44:10;;;;;;;6.15;3.45;;;24.00;76.50;;;;;;5029378;28;20041;-63
2022/07/20 02:46:38;;;;;;;8.73;3.72;;;23.90;76.60;;;;;;5031235;28;20037;-62
2022/07/20 02:49:06;;;;;;;6.35;3.60;;;24.00;76.80;;;;;;5028267;28;20046;-62
2022/07/20 02:51:32;;;;;;;5.93;3.85;;;23.90;76.70;;;;;;5031050;28;20450;-62
2022/07/20 02:53:58;;;;;;;6.00;3.78;;;23.90;76.80;;;;;;5031379;28;20034;-63
2022/07/20 02:56:24;;;;;;;9.05;3.85;;;23.90;76.90;;;;;;5026056;28;20037;-62
2022/07/20 02:58:50;;;;;;;4.72;3.45;;;23.80;77.30;;;;;;5030882;28;20045;-62
2022/07/20 03:01:16;;;;;;;6.43;3.78;;;23.80;77.50;;;;;;5028365;28;20042;-62
2022/07/20 03:03:42;;;;;;;6.50;3.60;;;23.70;77.60;;;;;;5032309;28;20037;-62
2022/07/20 03:06:08;;;;;;;5.82;3.65;;;23.70;77.60;;;;;;5032754;28;20034;-62
2022/07/20 03:08:34;;;;;;;9.63;4.18;;;23.70;77.60;;;;;;5031685;28;20140;-61
2022/07/20 03:10:59;;;;;;;6.10;4.15;;;23.60;77.50;;;;;;5034980;28;20037;-62
2022/07/20 03:13:25;;;;;;;7.75;4.50;;;23.60;77.70;;;;;;5032086;28;20065;-62
2022/07/20 03:15:51;;;;;;;6.43;3.72;;;23.60;77.90;;;;;;5014290;28;20044;-62
2022/07/20 03:18:16;;;;;;;7.70;4.07;;;23.50;77.90;;;;;;5031496;28;20048;-61
2022/07/20 03:20:42;;;;;;;5.05;3.80;;;23.50;78.10;;;;;;5034320;28;20041;-62
2022/07/20 03:23:08;;;;;;;6.30;3.75;;;23.50;78.10;;;;;;5032955;28;20045;-62
2022/07/20 03:25:33;;;;;;;9.02;3.72;;;23.50;78.10;;;;;;5030560;28;20041;-62
2022/07/20 03:27:59;;;;;;;7.28;3.60;;;23.40;78.20;;;;;;5030987;28;20049;-62
2022/07/20 03:30:26;;;;;;;5.70;3.72;;;23.40;79.00;;;;;;5029010;28;20076;-62
2022/07/20 03:32:54;;;;;;;9.73;4.13;;;23.40;78.40;;;;;;5034251;28;20458;-62
2022/07/20 03:35:20;;;;;;;8.20;3.85;;;23.30;78.50;;;;;;5031625;28;20438;-62
2022/07/20 03:37:46;;;;;;;6.90;3.80;;;23.30;78.80;;;;;;5034077;28;20073;-61
2022/07/20 03:40:11;;;;;;;4.93;3.65;;;23.30;78.70;;;;;;5034162;28;20116;-62
2022/07/20 03:42:37;;;;;;;8.45;4.07;;;23.40;78.70;;;;;;5031409;28;20106;-62
2022/07/20 03:45:04;;;;;;;6.80;4.25;;;23.30;78.60;;;;;;5033981;28;20424;-62
2022/07/20 03:47:29;;;;;;;5.72;3.90;;;23.30;78.60;;;;;;5031322;28;20054;-62
2022/07/20 03:49:55;;;;;;;7.80;3.88;;;23.30;78.70;;;;;;5013467;28;20037;-61
2022/07/20 03:52:21;;;;;;;5.85;3.70;;;23.30;78.80;;;;;;5016308;28;20038;-61
2022/07/20 03:54:47;;;;;;;6.30;3.60;;;23.20;78.80;;;;;;5031599;28;20029;-62
2022/07/20 03:57:13;;;;;;;7.30;3.90;;;23.20;78.90;;;;;;5031002;28;20470;-61
2022/07/20 03:59:38;;;;;;;7.18;4.10;;;23.20;79.00;;;;;;5033705;28;20025;-62
2022/07/20 04:02:04;;;;;;;10.32;4.07;;;23.20;79.10;;;;;;5031454;28;20042;-62
2022/07/20 04:04:31;;;;;;;5.55;3.92;;;23.20;79.20;;;;;;5034071;28;20128;-62
2022/07/20 04:06:56;;;;;;;6.25;4.03;;;23.20;79.20;;;;;;5030561;28;20037;-62
2022/07/20 04:12:09;;;;;;;5.57;3.63;;;23.20;79.40;;;;;;5033571;28;20457;-62
2022/07/20 04:14:35;;;;;;;6.15;4.03;;;23.20;79.40;;;;;;5028542;28;20188;-61
2022/07/20 04:17:01;;;;;;;6.93;4.20;;;23.20;79.40;;;;;;5033488;28;20045;-62
2022/07/20 04:19:27;;;;;;;7.35;3.85;;;23.20;79.40;;;;;;5030639;28;20187;-62
2022/07/20 04:21:56;;;;;;;7.10;4.03;;;23.20;79.40;;;;;;5033616;28;20112;-62
2022/07/20 04:24:22;;;;;;;5.82;4.00;;;23.20;79.30;;;;;;5002456;28;20158;-63
2022/07/20 04:26:48;;;;;;;5.95;3.97;;;23.20;79.40;;;;;;5030519;28;20075;-62
2022/07/20 04:29:14;;;;;;;9.15;4.10;;;23.20;79.50;;;;;;5030483;28;20029;-62
2022/07/20 04:31:43;;;;;;;6.05;3.90;;;23.20;79.60;;;;;;5030731;28;20043;-62
2022/07/20 04:34:08;;;;;;;5.18;3.80;;;23.20;79.70;;;;;;5033520;28;20362;-62
2022/07/20 04:36:34;;;;;;;7.10;4.10;;;23.20;79.70;;;;;;5030373;28;20482;-61
2022/07/20 04:39:01;;;;;;;6.95;4.43;;;23.20;79.90;;;;;;5032590;28;20136;-62
2022/07/20 04:41:26;;;;;;;7.07;3.72;;;23.20;80.00;;;;;;5033295;28;20044;-61
2022/07/20 04:43:52;;;;;;;6.70;3.90;;;23.30;80.00;;;;;;5030224;28;20049;-63
2022/07/20 04:46:17;;;;;;;7.93;4.10;;;23.30;80.30;;;;;;5033174;28;20045;-62
2022/07/20 04:48:43;;;;;;;8.15;3.90;;;23.30;80.70;;;;;;5031823;28;20445;-62
2022/07/20 04:51:09;;;;;;;9.38;4.30;;;23.30;80.80;;;;;;5031445;28;20045;-62
2022/07/20 04:53:34;;;;;;;7.63;4.22;;;23.40;80.90;;;;;;5033068;28;20025;-62
2022/07/20 04:56:00;;;;;;;6.95;4.20;;;23.40;81.00;;;;;;5024875;28;20029;-61
2022/07/20 04:58:27;;;;;;;8.88;4.05;;;23.50;80.90;;;;;;5031706;28;20532;-62
2022/07/20 05:00:52;;;;;;;4.97;3.70;;;24.00;80.40;;;;;;5027620;28;20080;-62
2022/07/20 05:03:18;;;;;;;8.85;4.63;;;24.70;79.30;;;;;;4995300;28;20045;-62
2022/07/20 05:05:44;;;;;;;7.55;4.30;;;25.60;78.00;;;;;;5015143;28;20121;-62
2022/07/20 05:08:10;;;;;;;9.50;4.50;;;26.40;76.70;;;;;;5018917;28;20041;-62
2022/07/20 05:10:36;;;;;;;10.07;4.18;;;27.10;75.60;;;;;;4998860;28;20046;-62
2022/07/20 05:13:02;;;;;;;6.68;4.20;;;27.70;74.60;;;;;;5019675;28;20128;-62
2022/07/20 05:15:27;;;;;;;9.02;4.45;;;28.30;73.90;;;;;;5031895;28;20414;-62
2022/07/20 05:17:53;;;;;;;7.13;4.05;;;28.60;73.10;;;;;;5013552;28;20045;-62
2022/07/20 05:20:19;;;;;;;7.43;4.10;;;29.20;72.80;;;;;;5026028;28;20125;-62
2022/07/20 05:22:45;;;;;;;6.80;4.30;;;29.70;71.60;;;;;;5031939;28;20350;-62
2022/07/20 05:25:11;;;;;;;9.20;4.47;;;29.80;71.00;;;;;;5017058;28;20117;-62
2022/07/20 05:27:37;;;;;;;7.93;4.50;;;30.00;70.60;;;;;;5031359;28;20099;-62
2022/07/20 05:30:04;;;;;;;7.97;4.60;;;30.30;70.30;;;;;;5028408;28;20037;-62
2022/07/20 05:32:29;;;;;;;6.28;3.80;;;30.40;70.10;;;;;;5030460;28;20449;-62
2022/07/20 05:34:55;;;;;;;8.20;4.32;;;30.70;69.80;;;;;;5031891;28;20044;-62
2022/07/20 05:37:21;;;;;;;5.75;3.95;;;30.80;69.30;;;;;;5028556;28;20040;-64
2022/07/20 05:39:47;;;;;;;10.90;4.82;;;31.30;69.30;;;;;;5031665;28;20033;-63
2022/07/20 05:42:13;;;;;;;9.23;4.82;;;31.30;68.50;;;;;;5031793;28;20099;-62
2022/07/20 05:44:42;;;;;;;9.65;4.75;;;31.50;68.20;;;;;;5031306;28;20087;-61
2022/07/20 05:47:09;;;;;;;9.32;4.80;;;31.50;68.00;;;;;;5014158;28;20045;-62
2022/07/20 05:49:36;;;;;;;8.95;4.53;;;31.70;68.10;;;;;;5029082;28;20040;-62
2022/07/20 05:52:02;;;;;;;7.03;4.85;;;32.10;68.20;;;;;;5026625;28;20044;-64
2022/07/20 05:54:28;;;;;;;6.75;5.15;;;32.40;67.90;;;;;;5029350;28;20099;-64
2022/07/20 05:56:53;;;;;;;7.22;5.15;;;32.40;67.40;;;;;;5029096;28;20382;-65
2022/07/20 05:59:19;;;;;;;6.75;4.82;;;32.20;67.70;;;;;;5031136;28;20714;-63
2022/07/20 06:01:45;;;;;;;11.75;5.28;;;32.20;67.70;;;;;;5011506;28;20038;-64
2022/07/20 06:04:11;;;;;;;7.00;4.60;;;32.30;67.90;;;;;;5031236;28;20033;-64
2022/07/20 06:06:37;;;;;;;11.45;5.25;;;32.70;67.90;;;;;;5031295;28;20045;-64
2022/07/20 06:09:04;;;;;;;9.55;4.75;;;32.80;67.30;;;;;;5006936;28;20347;-63
2022/07/20 06:11:30;;;;;;;8.13;4.60;;;32.90;67.50;;;;;;5013813;28;20037;-64
2022/07/20 06:13:56;;;;;;;8.77;5.57;;;32.70;67.20;;;;;;5018264;28;20030;-63
2022/07/20 06:16:21;;;;;;;9.68;5.28;;;33.10;67.10;;;;;;5007359;28;20125;-63
2022/07/20 06:18:49;;;;;;;9.57;5.40;;;33.30;67.10;;;;;;5013476;28;20091;-63
2022/07/20 06:21:14;;;;;;;9.38;6.07;;;33.30;67.00;;;;;;5012994;28;20049;-63
2022/07/20 06:23:41;;;;;;;8.38;5.70;;;33.10;67.50;;;;;;5011157;28;20049;-64
2022/07/20 06:26:07;;;;;;;10.65;5.70;;;32.90;67.80;;;;;;5011555;28;20030;-63
2022/07/20 06:28:39;;;;;;;7.22;5.57;;;33.10;68.80;;;;;;5015133;28;20036;-64
2022/07/20 06:31:06;;;;;;;9.05;6.30;;;33.30;68.40;;;;;;4983106;28;20038;-63
2022/07/20 06:33:35;;;;;;;16.15;6.25;;;33.70;68.50;;;;;;4996994;28;20069;-63
2022/07/20 06:36:00;;;;;;;9.70;6.72;;;33.90;68.60;;;;;;5021522;28;20422;-63
2022/07/20 06:38:26;;;;;;;9.15;6.90;;;34.10;68.40;;;;;;5016379;28;20137;-63
2022/07/20 06:40:52;;;;;;;9.00;6.72;;;34.00;68.40;;;;;;5032038;28;20049;-62
2022/07/20 06:43:18;;;;;;;14.10;7.55;;;33.90;68.70;;;;;;5031732;28;20066;-64
2022/07/20 06:45:43;;;;;;;13.57;8.95;;;33.80;69.20;;;;;;5006131;28;20049;-65
2022/07/20 06:48:09;;;;;;;14.50;10.02;;;33.70;69.80;;;;;;5029239;28;20427;-63
2022/07/20 06:50:35;;;;;;;14.15;9.95;;;33.60;70.50;;;;;;5030098;28;20050;-63
2022/07/20 06:53:00;;;;;;;17.63;11.63;;;33.60;71.00;;;;;;5035113;28;20095;-64
2022/07/20 06:55:26;;;;;;;12.60;10.45;;;33.10;72.00;;;;;;5019213;28;20096;-64
2022/07/20 06:57:52;;;;;;;15.50;11.07;;;32.50;72.90;;;;;;5017381;28;20119;-63
2022/07/20 07:00:17;;;;;;;13.98;10.30;;;32.20;73.70;;;;;;5016652;28;20038;-64
2022/07/20 07:02:43;;;;;;;16.05;10.45;;;32.40;73.70;;;;;;5032330;28;20045;-65
2022/07/20 07:05:09;;;;;;;15.38;10.82;;;31.90;74.30;;;;;;5017230;28;20095;-63
2022/07/20 07:07:35;;;;;;;12.52;10.55;;;31.80;74.90;;;;;;5029299;28;20034;-63
2022/07/20 07:10:01;;;;;;;16.55;10.85;;;31.30;76.60;;;;;;5034388;28;20120;-63
2022/07/20 07:12:26;;;;;;;14.82;10.82;;;30.50;78.40;;;;;;5035015;28;20072;-64
2022/07/20 07:14:52;;;;;;;15.45;10.77;;;30.20;80.50;;;;;;5032213;28;20083;-63
2022/07/20 07:17:18;;;;;;;22.00;11.48;;;30.00;81.10;;;;;;5033279;28;20450;-63
2022/07/20 07:19:43;;;;;;;17.52;12.75;;;29.90;82.00;;;;;;5013981;28;20448;-65
2022/07/20 07:22:09;;;;;;;18.80;14.43;;;29.70;84.40;;;;;;5034726;28;20037;-64
2022/07/20 07:24:35;;;;;;;19.70;15.25;;;29.60;85.30;;;;;;5032045;28;20045;-63
2022/07/20 07:27:02;;;;;;;20.77;15.15;;;29.40;86.20;;;;;;5013950;28;20044;-64
2022/07/20 07:29:27;;;;;;;20.95;15.98;;;29.10;87.00;;;;;;5031471;28;20037;-63
2022/07/20 07:31:58;;;;;;;27.48;15.45;;;29.00;87.80;;;;;;5031992;28;20033;-63
2022/07/20 07:34:25;;;;;;;23.35;14.70;;;29.30;88.30;;;;;;5034367;28;20069;-63
2022/07/20 07:36:51;;;;;;;20.98;15.48;;;29.30;88.70;;;;;;5029693;28;20045;-62
2022/07/20 07:39:16;;;;;;;24.95;17.50;;;29.30;89.10;;;;;;5033746;28;20052;-64
2022/07/20 07:41:42;;;;;;;24.83;17.05;;;29.40;89.30;;;;;;5016071;28;20037;-64
2022/07/20 07:44:08;;;;;;;21.45;17.05;;;29.40;89.70;;;;;;5013499;28;20041;-63
2022/07/20 07:46:33;;;;;;;27.58;18.13;;;29.40;90.00;;;;;;5017606;28;20172;-64
2022/07/20 07:48:59;;;;;;;25.88;18.38;;;29.40;90.30;;;;;;5019094;28;20038;-63
2022/07/20 07:51:25;;;;;;;24.10;17.52;;;29.30;90.60;;;;;;5028999;28;20045;-65
2022/07/20 07:53:50;;;;;;;23.52;16.73;;;29.20;90.80;;;;;;5033479;28;20050;-64
2022/07/20 07:56:16;;;;;;;26.20;19.08;;;29.30;90.90;;;;;;5031156;28;20040;-64
2022/07/20 07:58:42;;;;;;;27.23;20.08;;;29.20;91.50;;;;;;5030872;28;20049;-64
2022/07/20 08:01:08;;;;;;;26.38;19.83;;;29.30;91.50;;;;;;5031395;28;20049;-64
2022/07/20 08:03:34;;;;;;;23.63;18.77;;;29.30;91.40;;;;;;5031852;28;20037;-64
2022/07/20 08:06:00;;;;;;;25.75;20.13;;;29.40;91.70;;;;;;5013671;28;20030;-64
2022/07/20 08:08:25;;;;;;;25.40;20.55;;;29.40;91.70;;;;;;4993062;28;20120;-65
2022/07/20 08:10:51;;;;;;;26.15;20.48;;;29.40;92.00;;;;;;5033627;28;20429;-64
2022/07/20 08:13:19;;;;;;;30.38;22.70;;;29.30;92.00;;;;;;5031131;28;21528;-65
2022/07/20 08:15:44;;;;;;;31.98;22.90;;;29.50;91.70;;;;;;5027591;28;20041;-65
2022/07/20 08:18:10;;;;;;;29.80;22.67;;;29.50;91.60;;;;;;5031273;28;20106;-63
2022/07/20 08:20:36;;;;;;;25.73;21.90;;;29.40;91.70;;;;;;5005108;28;20374;-63
2022/07/20 08:23:02;;;;;;;28.00;22.63;;;29.40;91.20;;;;;;4997321;28;20454;-63
2022/07/20 08:25:28;;;;;;;27.90;22.20;;;29.30;91.20;;;;;;5030534;28;20120;-64
2022/07/20 08:27:53;;;;;;;30.42;22.25;;;29.20;91.30;;;;;;5029826;28;20117;-63
2022/07/20 08:30:20;;;;;;;31.02;23.77;;;29.20;91.50;;;;;;5013059;28;20037;-65
2022/07/20 08:32:45;;;;;;;30.08;23.55;;;29.10;91.50;;;;;;5033149;28;20466;-64
2022/07/20 08:35:11;;;;;;;27.67;22.52;;;29.20;91.70;;;;;;5014005;28;20041;-64
2022/07/20 08:37:38;;;;;;;31.27;23.85;;;29.10;91.20;;;;;;5010358;28;20069;-64
2022/07/20 08:40:05;;;;;;;33.67;24.30;;;29.00;91.00;;;;;;5030864;28;20438;-64
2022/07/20 08:42:31;;;;;;;32.63;23.25;;;28.90;91.00;;;;;;5030470;28;20041;-65
2022/07/20 08:44:57;;;;;;;29.42;24.25;;;28.90;90.90;;;;;;4998224;28;20054;-64
2022/07/20 08:47:27;;;;;;;32.83;22.50;;;28.80;91.30;;;;;;5029281;28;20459;-64
2022/07/20 08:49:52;;;;;;;28.35;22.17;;;28.70;91.00;;;;;;5011358;28;20052;-64
2022/07/20 08:52:18;;;;;;;30.13;21.15;;;28.70;90.80;;;;;;5032855;28;20038;-64
2022/07/20 08:54:45;;;;;;;27.05;21.20;;;28.70;91.30;;;;;;5030314;28;20359;-64
2022/07/20 08:57:14;;;;;;;28.67;19.98;;;28.80;90.90;;;;;;5030089;28;20065;-64
2022/07/20 08:59:40;;;;;;;21.70;19.10;;;28.70;91.10;;;;;;5029890;28;20128;-66
2022/07/20 09:02:11;;;;;;;25.83;20.25;;;28.80;91.30;;;;;;5011340;28;20056;-64
2022/07/20 09:04:57;;;;;;;29.27;20.48;;;28.80;91.50;;;;;;5012464;28;20041;-64
2022/07/20 09:07:44;;;;;;;24.17;19.58;;;28.90;91.20;;;;;;5021802;28;20410;-64
2022/07/20 09:10:12;;;;;;;22.10;19.45;;;28.90;90.70;;;;;;5028056;28;20120;-64
2022/07/20 09:12:55;;;;;;;27.38;19.40;;;28.90;90.80;;;;;;5032033;28;20043;-64
2022/07/20 09:15:29;;;;;;;24.52;18.02;;;28.90;91.30;;;;;;5009421;28;20370;-63
2022/07/20 09:18:24;;;;;;;24.45;18.23;;;28.70;91.40;;;;;;4986433;28;20041;-65
2022/07/20 09:20:51;;;;;;;23.75;17.65;;;28.70;91.60;;;;;;5029877;28;20046;-64
2022/07/20 09:23:26;;;;;;;20.50;16.73;;;28.70;92.10;;;;;;5106545;27;20409;-62
2022/07/20 09:25:52;;;;;;;22.15;15.13;;;28.90;92.20;;;;;;5106568;28;20063;-63
2022/07/20 09:28:18;;;;;;;20.95;14.48;;;28.90;91.50;;;;;;5103948;28;20117;-63
2022/07/20 09:30:55;;;;;;;27.55;15.48;;;28.80;91.20;;;;;;5107172;28;20471;-63
2022/07/20 09:33:29;;;;;;;19.58;13.40;;;28.80;90.60;;;;;;5100685;28;20036;-64
2022/07/20 09:35:56;;;;;;;18.60;12.32;;;28.70;90.50;;;;;;5104072;28;20028;-64
2022/07/20 09:38:37;;;;;;;19.83;10.93;;;28.60;90.90;;;;;;5106393;28;20040;-63
2022/07/20 09:41:05;;;;;;;16.73;11.48;;;28.60;90.00;;;;;;5105461;28;20031;-63
2022/07/20 09:43:36;;;;;;;17.13;11.02;;;28.60;90.00;;;;;;5083951;28;20047;-63
2022/07/20 09:46:10;;;;;;;15.00;10.23;;;28.50;90.00;;;;;;5086107;28;20040;-64
2022/07/20 09:48:44;;;;;;;15.52;9.95;;;28.50;90.20;;;;;;5103019;28;20031;-63
2022/07/20 09:51:23;;;;;;;19.73;10.75;;;28.70;90.50;;;;;;5104028;28;20056;-62
2022/07/20 09:53:50;;;;;;;15.88;10.82;;;28.60;90.30;;;;;;5088150;28;20085;-63
2022/07/20 09:56:18;;;;;;;15.93;10.93;;;28.70;90.20;;;;;;5105649;28;20115;-63
2022/07/20 09:58:48;;;;;;;18.60;10.32;;;28.70;90.30;;;;;;5105427;28;20047;-63
2022/07/20 10:01:25;;;;;;;16.45;10.18;;;28.70;90.20;;;;;;5105743;28;20044;-63
2022/07/20 10:03:53;;;;;;;14.45;9.90;;;28.70;89.10;;;;;;5083907;28;20036;-64
2022/07/20 10:06:24;;;;;;;15.88;10.13;;;28.80;90.20;;;;;;5105540;28;20059;-63
2022/07/20 10:08:50;;;;;;;16.70;11.05;;;28.80;88.90;;;;;;5084096;28;20055;-63
2022/07/20 10:11:17;;;;;;;15.57;10.73;;;28.50;89.90;;;;;;5086913;28;20043;-64
2022/07/20 10:13:44;;;;;;;15.15;10.82;;;28.60;89.90;;;;;;5099864;28;20040;-65
2022/07/20 10:16:47;;;;;;;15.70;11.70;;;28.50;89.40;;;;;;5102633;28;20024;-64
2022/07/20 10:19:13;;;;;;;17.20;11.32;;;28.50;89.10;;;;;;5104148;28;20044;-62
2022/07/20 10:21:47;;;;;;;16.10;11.35;;;28.50;89.30;;;;;;5104619;28;20055;-62
2022/07/20 10:24:18;;;;;;;15.98;11.00;;;28.70;89.50;;;;;;5105439;28;20050;-63
2022/07/20 10:26:46;;;;;;;19.55;10.55;;;28.80;89.90;;;;;;5084001;28;20043;-62
2022/07/20 10:29:28;;;;;;;16.95;11.15;;;28.80;89.20;;;;;;5103415;28;20415;-63
2022/07/20 10:31:56;;;;;;;14.50;10.27;;;28.80;89.90;;;;;;5103659;28;20043;-63
2022/07/20 10:34:36;;;;;;;16.80;10.52;;;28.80;90.00;;;;;;5092853;28;20472;-63
2022/07/20 10:37:42;;;;;;;17.30;10.70;;;28.90;89.60;;;;;;5091685;28;20107;-64
2022/07/20 10:40:28;;;;;;;22.88;10.27;;;29.00;89.70;;;;;;5011066;28;20045;-63
2022/07/20 10:43:14;;;;;;;13.68;9.68;;;29.20;89.90;;;;;;5011770;28;20053;-62
2022/07/20 10:45:41;;;;;;;14.05;9.85;;;29.10;89.30;;;;;;5068460;28;20048;-62
2022/07/20 10:48:11;;;;;;;17.58;10.88;;;29.20;90.00;;;;;;5088473;28;20031;-62
2022/07/20 10:50:38;;;;;;;13.27;10.05;;;29.30;90.00;;;;;;5092261;28;20055;-63
2022/07/20 10:53:09;;;;;;;16.67;10.52;;;29.40;89.00;;;;;;5092333;28;20035;-63
2022/07/20 10:55:35;;;;;;;15.48;9.18;;;29.40;88.70;;;;;;5092862;28;20036;-63
2022/07/20 10:58:15;;;;;;;16.52;8.77;;;29.40;88.60;;;;;;5092697;28;20036;-63
2022/07/20 11:00:45;;;;;;;15.57;9.63;;;29.40;88.20;;;;;;5086103;28;20046;-64
2022/07/20 11:03:12;;;;;;;16.13;8.98;;;29.50;88.60;;;;;;5088935;28;20051;-64
2022/07/20 11:05:38;;;;;;;14.60;9.75;;;29.60;87.00;;;;;;5091108;28;20047;-63
2022/07/20 11:08:09;;;;;;;12.70;8.85;;;29.60;86.50;;;;;;5086578;28;20346;-63
2022/07/20 11:10:35;;;;;;;13.35;9.23;;;29.50;86.00;;;;;;5090185;28;20028;-62
2022/07/20 11:13:04;;;;;;;15.98;9.30;;;29.50;86.30;;;;;;5090476;28;20455;-64
2022/07/20 11:15:43;;;;;;;22.05;10.27;;;29.40;86.50;;;;;;5089672;28;20063;-63
2022/07/20 11:18:11;;;;;;;16.30;9.65;;;29.50;87.20;;;;;;5090822;28;20044;-63
2022/07/20 11:20:51;;;;;;;11.95;8.90;;;29.50;87.50;;;;;;5090279;28;20028;-63
2022/07/20 11:23:21;;;;;;;11.25;9.05;;;29.50;87.10;;;;;;5089579;28;20056;-63
2022/07/20 11:25:59;;;;;;;15.52;9.95;;;29.50;86.70;;;;;;5090918;28;20063;-63
2022/07/20 11:28:27;;;;;;;15.13;9.70;;;29.70;86.40;;;;;;5087973;28;20325;-65
2022/07/20 11:30:54;;;;;;;15.63;9.75;;;29.60;86.70;;;;;;5068188;28;20041;-64
2022/07/20 11:33:35;;;;;;;16.23;10.10;;;29.70;86.60;;;;;;5088009;28;20036;-63
2022/07/20 11:36:13;;;;;;;12.73;9.88;;;29.90;86.10;;;;;;5089366;28;20044;-63
2022/07/20 11:38:43;;;;;;;17.98;11.02;;;29.90;85.80;;;;;;5088659;28;20043;-63
2022/07/20 11:41:15;;;;;;;16.23;10.95;;;29.70;86.10;;;;;;5091443;28;20036;-63
2022/07/20 11:43:41;;;;;;;13.90;11.68;;;29.70;85.40;;;;;;5090121;28;20032;-63
2022/07/20 11:46:18;;;;;;;15.43;11.80;;;29.70;84.80;;;;;;5092127;28;20042;-63
2022/07/20 11:48:55;;;;;;;13.52;11.60;;;29.80;85.00;;;;;;5088668;28;20032;-64
2022/07/20 11:51:21;;;;;;;13.13;10.75;;;29.80;84.30;;;;;;5089091;28;20028;-63
2022/07/20 11:53:47;;;;;;;15.68;11.10;;;29.70;83.90;;;;;;5089209;28;20051;-63
2022/07/20 11:56:21;;;;;;;13.68;10.93;;;29.70;84.10;;;;;;5087330;28;20528;-63
2022/07/20 11:58:53;;;;;;;15.68;9.32;;;29.70;84.10;;;;;;5068441;28;20044;-63
2022/07/20 12:01:27;;;;;;;13.10;9.60;;;29.70;84.30;;;;;;5090653;28;20066;-63
2022/07/20 12:03:59;;;;;;;14.95;9.65;;;29.70;84.30;;;;;;5090140;28;20118;-63
2022/07/20 12:06:27;;;;;;;12.00;9.43;;;29.70;84.80;;;;;;5070079;28;20040;-65
2022/07/20 12:09:17;;;;;;;13.18;8.23;;;29.70;85.20;;;;;;5070800;28;20471;-63
2022/07/20 12:11:54;;;;;;;12.95;7.65;;;29.80;85.10;;;;;;5071077;28;20036;-63
2022/07/20 12:14:31;;;;;;;14.40;8.15;;;29.80;84.50;;;;;;5089384;28;20036;-63
2022/07/20 12:17:19;;;;;;;10.65;8.13;;;29.90;85.00;;;;;;5090678;28;20039;-63
2022/07/20 12:19:48;;;;;;;12.98;8.10;;;30.00;85.50;;;;;;5069912;28;20368;-65
2022/07/20 12:22:21;;;;;;;12.25;7.55;;;30.20;85.80;;;;;;5090061;28;20055;-63
2022/07/20 12:24:56;;;;;;;;;;;30.00;84.70;;;;;;5085474;28;20055;-64
2022/07/20 12:27:24;;;;;;;9.43;7.05;;;29.90;85.40;;;;;;5087055;28;19945;-63
2022/07/20 12:29:50;;;;;;;10.32;6.50;;;29.90;85.40;;;;;;5086903;28;20065;-63
2022/07/20 12:32:26;;;;;;;12.20;6.93;;;30.00;85.20;;;;;;5088186;28;20119;-64
2022/07/20 12:34:54;;;;;;;11.40;6.75;;;30.00;85.50;;;;;;5087753;28;20477;-62
2022/07/20 12:37:21;;;;;;;10.90;7.40;;;29.90;84.70;;;;;;5088499;28;20036;-62
2022/07/20 12:39:53;;;;;;;15.18;6.60;;;29.90;85.20;;;;;;5088169;28;20508;-64
2022/07/20 12:42:24;;;;;;;12.30;6.70;;;30.00;85.40;;;;;;5089829;28;20066;-63
2022/07/20 12:45:05;;;;;;;7.70;5.32;;;30.20;85.60;;;;;;5089534;28;20125;-64
2022/07/20 12:47:32;;;;;;;10.02;5.78;;;30.40;84.20;;;;;;5071448;28;20044;-64